sensor_id;sensor_type;location;lat;lon;timestamp;pressure;altitude;pressure_sealevel;temperature;humidity
63306;BME280;50735;52.060;1.248;2023-05-19T00:01:15;102560.91;;;9.74;45.95
63306;BME280;50735;52.060;1.248;2023-05-19T00:03:49;102555.37;;;9.68;46.96
63306;BME280;50735;52.060;1.248;2023-05-19T00:06:23;102550.08;;;9.35;47.66
63306;BME280;50735;52.060;1.248;2023-05-19T00:08:57;102547.67;;;9.41;47.71
63306;BME280;50735;52.060;1.248;2023-05-19T00:11:29;102546.11;;;9.67;46.71
63306;BME280;50735;52.060;1.248;2023-05-19T00:14:03;102546.97;;;9.58;46.94
63306;BME280;50735;52.060;1.248;2023-05-19T00:16:36;102544.64;;;9.72;47.76
63306;BME280;50735;52.060;1.248;2023-05-19T00:19:08;102539.14;;;9.34;46.92
63306;BME280;50735;52.060;1.248;2023-05-19T00:21:40;102535.31;;;9.81;46.51
63306;BME280;50735;52.060;1.248;2023-05-19T00:24:12;102537.58;;;9.77;46.90
63306;BME280;50735;52.060;1.248;2023-05-19T00:26:44;102536.64;;;9.87;46.79
63306;BME280;50735;52.060;1.248;2023-05-19T00:29:16;102537.38;;;9.53;47.31
63306;BME280;50735;52.060;1.248;2023-05-19T00:31:48;102538.17;;;9.49;46.63
63306;BME280;50735;52.060;1.248;2023-05-19T00:34:19;102536.82;;;9.67;46.86
63306;BME280;50735;52.060;1.248;2023-05-19T00:36:51;102536.73;;;9.83;46.52
63306;BME280;50735;52.060;1.248;2023-05-19T00:39:23;102535.53;;;9.64;46.80
63306;BME280;50735;52.060;1.248;2023-05-19T00:41:55;102530.41;;;9.82;46.83
63306;BME280;50735;52.060;1.248;2023-05-19T00:44:27;102528.99;;;9.64;46.58
63306;BME280;50735;52.060;1.248;2023-05-19T00:46:59;102527.44;;;9.65;47.09
63306;BME280;50735;52.060;1.248;2023-05-19T00:49:30;102527.54;;;9.62;46.58
63306;BME280;50735;52.060;1.248;2023-05-19T00:52:05;102521.13;;;9.72;46.49
63306;BME280;50735;52.060;1.248;2023-05-19T00:54:37;102515.23;;;9.54;46.93
63306;BME280;50735;52.060;1.248;2023-05-19T00:57:09;102509.91;;;9.68;46.69
63306;BME280;50735;52.060;1.248;2023-05-19T00:59:42;102506.64;;;9.66;47.23
63306;BME280;50735;52.060;1.248;2023-05-19T01:02:14;102503.88;;;9.46;46.74
63306;BME280;50735;52.060;1.248;2023-05-19T01:04:46;102509.49;;;9.51;48.42
63306;BME280;50735;52.060;1.248;2023-05-19T01:07:19;102512.59;;;9.34;47.43
63306;BME280;50735;52.060;1.248;2023-05-19T01:09:51;102520.70;;;9.41;47.26
63306;BME280;50735;52.060;1.248;2023-05-19T01:12:23;102527.01;;;9.64;47.25
63306;BME280;50735;52.060;1.248;2023-05-19T01:14:57;102534.23;;;9.49;47.37
63306;BME280;50735;52.060;1.248;2023-05-19T01:17:34;102535.48;;;9.42;47.27
63306;BME280;50735;52.060;1.248;2023-05-19T01:20:18;102536.89;;;9.59;47.30
63306;BME280;50735;52.060;1.248;2023-05-19T01:23:09;102527.31;;;9.76;47.13
63306;BME280;50735;52.060;1.248;2023-05-19T01:26:02;102531.78;;;9.36;46.96
63306;BME280;50735;52.060;1.248;2023-05-19T01:28:52;102535.77;;;9.41;46.72
63306;BME280;50735;52.060;1.248;2023-05-19T01:31:30;102533.82;;;9.29;46.67
63306;BME280;50735;52.060;1.248;2023-05-19T01:34:02;102529.15;;;9.21;46.98
63306;BME280;50735;52.060;1.248;2023-05-19T01:36:35;102521.65;;;9.15;46.71
63306;BME280;50735;52.060;1.248;2023-05-19T01:39:08;102519.20;;;9.06;46.73
63306;BME280;50735;52.060;1.248;2023-05-19T01:41:41;102519.48;;;9.00;47.07
63306;BME280;50735;52.060;1.248;2023-05-19T01:44:14;102518.79;;;8.90;47.47
63306;BME280;50735;52.060;1.248;2023-05-19T01:46:46;102518.21;;;8.83;47.74
63306;BME280;50735;52.060;1.248;2023-05-19T01:49:18;102519.65;;;8.79;47.20
63306;BME280;50735;52.060;1.248;2023-05-19T01:51:51;102520.56;;;8.77;47.16
63306;BME280;50735;52.060;1.248;2023-05-19T01:54:23;102519.46;;;8.77;47.22
63306;BME280;50735;52.060;1.248;2023-05-19T01:57:00;102516.48;;;9.00;47.23
63306;BME280;50735;52.060;1.248;2023-05-19T01:59:43;102514.78;;;8.98;47.68
63306;BME280;50735;52.060;1.248;2023-05-19T02:02:25;102514.76;;;8.87;47.80
63306;BME280;50735;52.060;1.248;2023-05-19T02:05:08;102516.27;;;8.61;47.74
63306;BME280;50735;52.060;1.248;2023-05-19T02:07:45;102515.92;;;8.75;47.64
63306;BME280;50735;52.060;1.248;2023-05-19T02:10:25;102513.91;;;8.71;48.42
63306;BME280;50735;52.060;1.248;2023-05-19T02:13:03;102512.26;;;8.64;48.51
63306;BME280;50735;52.060;1.248;2023-05-19T02:15:39;102514.33;;;8.64;47.79
63306;BME280;50735;52.060;1.248;2023-05-19T02:18:11;102516.55;;;8.66;47.90
63306;BME280;50735;52.060;1.248;2023-05-19T02:20:44;102515.57;;;8.43;47.79
63306;BME280;50735;52.060;1.248;2023-05-19T02:23:16;102510.58;;;8.66;49.27
63306;BME280;50735;52.060;1.248;2023-05-19T02:25:48;102509.91;;;8.81;48.16
63306;BME280;50735;52.060;1.248;2023-05-19T02:28:20;102514.12;;;8.67;48.59
63306;BME280;50735;52.060;1.248;2023-05-19T02:30:52;102515.71;;;8.89;48.93
63306;BME280;50735;52.060;1.248;2023-05-19T02:33:24;102513.30;;;8.54;48.69
63306;BME280;50735;52.060;1.248;2023-05-19T02:35:56;102509.85;;;8.79;48.96
63306;BME280;50735;52.060;1.248;2023-05-19T02:38:28;102508.03;;;8.75;48.43
63306;BME280;50735;52.060;1.248;2023-05-19T02:40:59;102507.17;;;8.97;48.36
63306;BME280;50735;52.060;1.248;2023-05-19T02:43:31;102510.03;;;8.58;48.42
63306;BME280;50735;52.060;1.248;2023-05-19T02:46:03;102511.90;;;8.63;48.43
63306;BME280;50735;52.060;1.248;2023-05-19T02:48:35;102511.29;;;9.03;48.59
63306;BME280;50735;52.060;1.248;2023-05-19T02:51:07;102511.63;;;8.52;48.47
63306;BME280;50735;52.060;1.248;2023-05-19T02:53:39;102506.10;;;8.73;48.48
63306;BME280;50735;52.060;1.248;2023-05-19T02:56:11;102505.27;;;8.87;49.01
63306;BME280;50735;52.060;1.248;2023-05-19T02:58:43;102502.57;;;8.83;49.31
63306;BME280;50735;52.060;1.248;2023-05-19T03:01:15;102500.74;;;8.74;48.87
63306;BME280;50735;52.060;1.248;2023-05-19T03:03:47;102501.19;;;8.73;48.91
63306;BME280;50735;52.060;1.248;2023-05-19T03:06:19;102506.43;;;8.54;49.74
63306;BME280;50735;52.060;1.248;2023-05-19T03:08:50;102507.56;;;8.72;49.82
63306;BME280;50735;52.060;1.248;2023-05-19T03:11:22;102504.38;;;8.76;48.89
63306;BME280;50735;52.060;1.248;2023-05-19T03:13:54;102500.95;;;8.83;48.80
63306;BME280;50735;52.060;1.248;2023-05-19T03:16:26;102501.51;;;8.82;48.52
63306;BME280;50735;52.060;1.248;2023-05-19T03:18:58;102501.90;;;8.39;48.47
63306;BME280;50735;52.060;1.248;2023-05-19T03:21:30;102501.29;;;8.60;48.69
63306;BME280;50735;52.060;1.248;2023-05-19T03:24:02;102500.50;;;8.52;48.48
63306;BME280;50735;52.060;1.248;2023-05-19T03:26:34;102497.92;;;8.66;48.47
63306;BME280;50735;52.060;1.248;2023-05-19T03:29:06;102498.01;;;8.44;48.56
63306;BME280;50735;52.060;1.248;2023-05-19T03:31:38;102493.33;;;8.38;48.90
63306;BME280;50735;52.060;1.248;2023-05-19T03:34:10;102492.08;;;8.57;49.30
63306;BME280;50735;52.060;1.248;2023-05-19T03:36:42;102490.03;;;8.35;49.50
63306;BME280;50735;52.060;1.248;2023-05-19T03:39:14;102480.88;;;8.50;49.02
63306;BME280;50735;52.060;1.248;2023-05-19T03:41:46;102473.61;;;8.34;50.85
63306;BME280;50735;52.060;1.248;2023-05-19T03:44:17;102468.33;;;8.10;49.80
63306;BME280;50735;52.060;1.248;2023-05-19T03:46:49;102472.17;;;8.33;50.13
63306;BME280;50735;52.060;1.248;2023-05-19T03:49:21;102478.89;;;8.36;49.50
63306;BME280;50735;52.060;1.248;2023-05-19T03:51:53;102482.63;;;8.40;49.42
63306;BME280;50735;52.060;1.248;2023-05-19T03:54:25;102488.45;;;8.24;49.41
63306;BME280;50735;52.060;1.248;2023-05-19T03:56:57;102494.92;;;8.47;49.48
63306;BME280;50735;52.060;1.248;2023-05-19T03:59:29;102494.67;;;8.44;49.37
63306;BME280;50735;52.060;1.248;2023-05-19T04:02:01;102491.44;;;8.23;49.57
63306;BME280;50735;52.060;1.248;2023-05-19T04:04:33;102492.10;;;8.44;49.57
63306;BME280;50735;52.060;1.248;2023-05-19T04:07:05;102497.57;;;8.45;49.69
63306;BME280;50735;52.060;1.248;2023-05-19T04:09:37;102497.67;;;8.47;49.92
63306;BME280;50735;52.060;1.248;2023-05-19T04:12:09;102495.89;;;8.40;49.66
63306;BME280;50735;52.060;1.248;2023-05-19T04:14:41;102503.31;;;8.40;50.54
63306;BME280;50735;52.060;1.248;2023-05-19T04:17:13;102509.24;;;8.37;50.39
63306;BME280;50735;52.060;1.248;2023-05-19T04:19:45;102506.97;;;8.35;50.03
63306;BME280;50735;52.060;1.248;2023-05-19T04:22:17;102500.75;;;8.37;50.08
63306;BME280;50735;52.060;1.248;2023-05-19T04:24:49;102501.12;;;8.38;49.97
63306;BME280;50735;52.060;1.248;2023-05-19T04:27:20;102503.87;;;8.39;49.99
63306;BME280;50735;52.060;1.248;2023-05-19T04:29:52;102504.38;;;8.42;50.03
63306;BME280;50735;52.060;1.248;2023-05-19T04:32:24;102510.52;;;8.45;50.21
63306;BME280;50735;52.060;1.248;2023-05-19T04:34:56;102509.33;;;8.43;50.96
63306;BME280;50735;52.060;1.248;2023-05-19T04:37:28;102502.14;;;8.42;50.46
63306;BME280;50735;52.060;1.248;2023-05-19T04:40:00;102496.47;;;8.45;50.37
63306;BME280;50735;52.060;1.248;2023-05-19T04:42:32;102497.45;;;8.48;50.37
63306;BME280;50735;52.060;1.248;2023-05-19T04:45:04;102498.46;;;8.55;50.30
63306;BME280;50735;52.060;1.248;2023-05-19T04:47:36;102496.77;;;8.63;50.38
63306;BME280;50735;52.060;1.248;2023-05-19T04:50:09;102495.07;;;8.72;50.46
63306;BME280;50735;52.060;1.248;2023-05-19T04:52:41;102494.14;;;8.80;50.27
63306;BME280;50735;52.060;1.248;2023-05-19T04:55:13;102490.59;;;8.87;58.84
63306;BME280;50735;52.060;1.248;2023-05-19T04:57:45;102490.61;;;9.01;52.00
63306;BME280;50735;52.060;1.248;2023-05-19T05:00:18;102489.36;;;8.86;51.16
63306;BME280;50735;52.060;1.248;2023-05-19T05:02:49;102492.34;;;9.14;51.02
63306;BME280;50735;52.060;1.248;2023-05-19T05:05:22;102492.02;;;9.36;50.74
63306;BME280;50735;52.060;1.248;2023-05-19T05:07:53;102494.39;;;9.22;50.71
63306;BME280;50735;52.060;1.248;2023-05-19T05:10:25;102499.01;;;9.26;50.58
63306;BME280;50735;52.060;1.248;2023-05-19T05:12:58;102503.13;;;9.40;50.56
63306;BME280;50735;52.060;1.248;2023-05-19T05:15:30;102503.86;;;9.42;50.94
63306;BME280;50735;52.060;1.248;2023-05-19T05:18:02;102504.59;;;9.51;50.51
63306;BME280;50735;52.060;1.248;2023-05-19T05:20:35;102508.46;;;9.62;50.52
63306;BME280;50735;52.060;1.248;2023-05-19T05:23:08;102505.32;;;9.38;51.03
63306;BME280;50735;52.060;1.248;2023-05-19T05:25:41;102501.39;;;9.30;51.59
63306;BME280;50735;52.060;1.248;2023-05-19T05:28:13;102501.58;;;9.69;51.00
63306;BME280;50735;52.060;1.248;2023-05-19T05:30:45;102505.63;;;9.75;52.43
63306;BME280;50735;52.060;1.248;2023-05-19T05:33:17;102506.49;;;9.43;51.52
63306;BME280;50735;52.060;1.248;2023-05-19T05:35:49;102500.42;;;9.73;52.11
63306;BME280;50735;52.060;1.248;2023-05-19T05:38:21;102501.02;;;9.80;51.60
63306;BME280;50735;52.060;1.248;2023-05-19T05:40:53;102500.76;;;9.88;51.64
63306;BME280;50735;52.060;1.248;2023-05-19T05:43:24;102496.75;;;9.79;51.64
63306;BME280;50735;52.060;1.248;2023-05-19T05:45:57;102494.50;;;9.97;52.66
63306;BME280;50735;52.060;1.248;2023-05-19T05:48:30;102494.63;;;10.12;52.32
63306;BME280;50735;52.060;1.248;2023-05-19T05:51:02;102494.04;;;10.11;53.28
63306;BME280;50735;52.060;1.248;2023-05-19T05:53:39;102489.44;;;9.96;53.54
63306;BME280;50735;52.060;1.248;2023-05-19T05:56:13;102487.49;;;9.90;54.08
63306;BME280;50735;52.060;1.248;2023-05-19T05:58:45;102490.38;;;9.24;55.09
63306;BME280;50735;52.060;1.248;2023-05-19T06:01:17;102494.25;;;9.94;54.55
63306;BME280;50735;52.060;1.248;2023-05-19T06:03:49;102500.53;;;10.12;53.51
63306;BME280;50735;52.060;1.248;2023-05-19T06:06:21;102497.44;;;10.54;52.95
63306;BME280;50735;52.060;1.248;2023-05-19T06:08:53;102498.95;;;10.72;52.58
63306;BME280;50735;52.060;1.248;2023-05-19T06:11:25;102498.00;;;11.10;52.01
63306;BME280;50735;52.060;1.248;2023-05-19T06:13:57;102494.84;;;11.16;52.43
63306;BME280;50735;52.060;1.248;2023-05-19T06:16:29;102493.00;;;11.38;53.00
63306;BME280;50735;52.060;1.248;2023-05-19T06:19:01;102493.86;;;11.34;52.64
63306;BME280;50735;52.060;1.248;2023-05-19T06:21:33;102492.64;;;11.20;53.40
63306;BME280;50735;52.060;1.248;2023-05-19T06:24:05;102489.89;;;11.31;53.57
63306;BME280;50735;52.060;1.248;2023-05-19T06:26:37;102487.91;;;10.78;54.90
63306;BME280;50735;52.060;1.248;2023-05-19T06:29:09;102486.55;;;11.03;54.28
63306;BME280;50735;52.060;1.248;2023-05-19T06:31:41;102479.96;;;11.32;54.21
63306;BME280;50735;52.060;1.248;2023-05-19T06:34:12;102479.93;;;11.20;54.51
63306;BME280;50735;52.060;1.248;2023-05-19T06:36:44;102481.00;;;11.70;53.52
63306;BME280;50735;52.060;1.248;2023-05-19T06:39:16;102481.70;;;11.79;52.86
63306;BME280;50735;52.060;1.248;2023-05-19T06:41:47;102488.01;;;12.09;52.67
63306;BME280;50735;52.060;1.248;2023-05-19T06:44:19;102494.83;;;12.20;52.21
63306;BME280;50735;52.060;1.248;2023-05-19T06:46:51;102490.88;;;12.42;52.31
63306;BME280;50735;52.060;1.248;2023-05-19T06:49:23;102484.36;;;12.73;51.53
63306;BME280;50735;52.060;1.248;2023-05-19T06:51:55;102484.87;;;12.13;51.94
63306;BME280;50735;52.060;1.248;2023-05-19T06:54:27;102487.27;;;12.57;51.80
63306;BME280;50735;52.060;1.248;2023-05-19T06:56:58;102482.03;;;12.29;51.69
63306;BME280;50735;52.060;1.248;2023-05-19T06:59:30;102480.13;;;12.90;51.09
63306;BME280;50735;52.060;1.248;2023-05-19T07:02:03;102477.08;;;13.05;51.02
63306;BME280;50735;52.060;1.248;2023-05-19T07:04:34;102478.56;;;12.95;50.59
63306;BME280;50735;52.060;1.248;2023-05-19T07:07:07;102483.05;;;13.35;49.28
63306;BME280;50735;52.060;1.248;2023-05-19T07:09:38;102483.95;;;13.95;48.68
63306;BME280;50735;52.060;1.248;2023-05-19T07:12:10;102483.03;;;14.29;47.60
63306;BME280;50735;52.060;1.248;2023-05-19T07:14:42;102488.46;;;14.47;46.97
63306;BME280;50735;52.060;1.248;2023-05-19T07:17:13;102486.76;;;14.32;45.41
63306;BME280;50735;52.060;1.248;2023-05-19T07:19:45;102487.10;;;14.26;46.11
63306;BME280;50735;52.060;1.248;2023-05-19T07:22:16;102488.46;;;14.57;46.23
63306;BME280;50735;52.060;1.248;2023-05-19T07:24:48;102486.22;;;14.55;46.19
63306;BME280;50735;52.060;1.248;2023-05-19T07:27:20;102484.87;;;14.50;45.94
63306;BME280;50735;52.060;1.248;2023-05-19T07:29:51;102488.96;;;14.42;45.34
63306;BME280;50735;52.060;1.248;2023-05-19T07:32:23;102489.53;;;14.34;45.23
63306;BME280;50735;52.060;1.248;2023-05-19T07:34:55;102495.11;;;14.44;43.97
63306;BME280;50735;52.060;1.248;2023-05-19T07:37:27;102501.80;;;13.70;46.91
63306;BME280;50735;52.060;1.248;2023-05-19T07:39:58;102502.61;;;13.54;47.86
63306;BME280;50735;52.060;1.248;2023-05-19T07:42:30;102504.03;;;13.42;48.47
63306;BME280;50735;52.060;1.248;2023-05-19T07:45:03;102504.16;;;12.29;49.27
63306;BME280;50735;52.060;1.248;2023-05-19T07:47:35;102503.98;;;11.14;51.58
63306;BME280;50735;52.060;1.248;2023-05-19T07:50:07;102502.13;;;11.93;50.67
63306;BME280;50735;52.060;1.248;2023-05-19T07:52:39;102499.14;;;12.38;49.69
63306;BME280;50735;52.060;1.248;2023-05-19T07:55:11;102503.19;;;12.25;49.92
63306;BME280;50735;52.060;1.248;2023-05-19T07:57:44;102505.10;;;12.16;50.90
63306;BME280;50735;52.060;1.248;2023-05-19T08:00:16;102505.37;;;12.30;51.09
63306;BME280;50735;52.060;1.248;2023-05-19T08:02:48;102506.77;;;12.13;51.78
63306;BME280;50735;52.060;1.248;2023-05-19T08:05:20;102507.68;;;12.01;51.86
63306;BME280;50735;52.060;1.248;2023-05-19T08:07:52;102505.57;;;12.42;51.21
63306;BME280;50735;52.060;1.248;2023-05-19T08:10:24;102508.35;;;11.98;51.96
63306;BME280;50735;52.060;1.248;2023-05-19T08:12:56;102504.51;;;12.65;51.15
63306;BME280;50735;52.060;1.248;2023-05-19T08:15:28;102507.99;;;12.92;51.14
63306;BME280;50735;52.060;1.248;2023-05-19T08:18:00;102507.13;;;13.12;49.96
63306;BME280;50735;52.060;1.248;2023-05-19T08:20:32;102512.35;;;13.19;49.53
63306;BME280;50735;52.060;1.248;2023-05-19T08:23:04;102513.14;;;13.50;48.81
63306;BME280;50735;52.060;1.248;2023-05-19T08:25:35;102513.14;;;13.51;48.21
63306;BME280;50735;52.060;1.248;2023-05-19T08:28:07;102517.74;;;13.74;48.00
63306;BME280;50735;52.060;1.248;2023-05-19T08:30:39;102517.10;;;12.90;49.11
63306;BME280;50735;52.060;1.248;2023-05-19T08:33:10;102517.76;;;13.18;48.93
63306;BME280;50735;52.060;1.248;2023-05-19T08:35:42;102516.93;;;12.98;47.82
63306;BME280;50735;52.060;1.248;2023-05-19T08:38:14;102515.94;;;13.24;47.16
63306;BME280;50735;52.060;1.248;2023-05-19T08:40:46;102513.53;;;12.59;48.12
63306;BME280;50735;52.060;1.248;2023-05-19T08:43:18;102508.43;;;13.18;48.39
63306;BME280;50735;52.060;1.248;2023-05-19T08:45:51;102506.86;;;13.45;48.12
63306;BME280;50735;52.060;1.248;2023-05-19T08:48:23;102507.39;;;13.45;46.47
63306;BME280;50735;52.060;1.248;2023-05-19T08:51:02;102505.15;;;13.84;46.10
63306;BME280;50735;52.060;1.248;2023-05-19T08:53:39;102500.98;;;14.14;45.90
63306;BME280;50735;52.060;1.248;2023-05-19T08:56:15;102507.84;;;13.77;46.02
63306;BME280;50735;52.060;1.248;2023-05-19T08:58:48;102506.01;;;13.14;46.41
63306;BME280;50735;52.060;1.248;2023-05-19T09:01:21;102500.63;;;13.10;49.41
63306;BME280;50735;52.060;1.248;2023-05-19T09:03:53;102501.32;;;12.72;47.51
63306;BME280;50735;52.060;1.248;2023-05-19T09:06:26;102496.71;;;12.84;47.05
63306;BME280;50735;52.060;1.248;2023-05-19T09:08:58;102505.01;;;13.72;46.61
63306;BME280;50735;52.060;1.248;2023-05-19T09:11:29;102508.98;;;13.65;47.22
63306;BME280;50735;52.060;1.248;2023-05-19T09:14:01;102508.90;;;12.97;45.51
63306;BME280;50735;52.060;1.248;2023-05-19T09:16:33;102510.68;;;12.87;45.66
63306;BME280;50735;52.060;1.248;2023-05-19T09:19:12;102514.55;;;13.87;45.18
63306;BME280;50735;52.060;1.248;2023-05-19T09:21:44;102513.16;;;13.21;46.00
63306;BME280;50735;52.060;1.248;2023-05-19T09:24:15;102509.84;;;13.62;44.22
63306;BME280;50735;52.060;1.248;2023-05-19T09:26:47;102505.31;;;14.12;44.35
63306;BME280;50735;52.060;1.248;2023-05-19T09:29:19;102503.54;;;13.77;44.09
63306;BME280;50735;52.060;1.248;2023-05-19T09:31:53;102512.15;;;13.48;42.29
63306;BME280;50735;52.060;1.248;2023-05-19T09:34:25;102511.78;;;13.61;41.12
63306;BME280;50735;52.060;1.248;2023-05-19T09:36:58;102509.84;;;14.18;41.12
63306;BME280;50735;52.060;1.248;2023-05-19T09:39:29;102512.50;;;14.59;40.80
63306;BME280;50735;52.060;1.248;2023-05-19T09:42:03;102512.20;;;14.81;41.66
63306;BME280;50735;52.060;1.248;2023-05-19T09:44:35;102508.21;;;15.05;40.63
63306;BME280;50735;52.060;1.248;2023-05-19T09:47:08;102512.91;;;15.14;40.87
63306;BME280;50735;52.060;1.248;2023-05-19T09:49:45;102515.21;;;14.63;40.26
63306;BME280;50735;52.060;1.248;2023-05-19T09:52:18;102515.18;;;14.47;40.87
63306;BME280;50735;52.060;1.248;2023-05-19T09:54:51;102512.63;;;14.63;40.63
63306;BME280;50735;52.060;1.248;2023-05-19T09:57:25;102508.04;;;15.07;41.28
63306;BME280;50735;52.060;1.248;2023-05-19T09:59:58;102507.84;;;14.48;39.36
63306;BME280;50735;52.060;1.248;2023-05-19T10:02:31;102511.50;;;14.18;40.30
63306;BME280;50735;52.060;1.248;2023-05-19T10:05:04;102509.02;;;15.03;39.87
63306;BME280;50735;52.060;1.248;2023-05-19T10:07:37;102503.99;;;15.51;39.77
63306;BME280;50735;52.060;1.248;2023-05-19T10:10:11;102502.85;;;15.92;39.52
63306;BME280;50735;52.060;1.248;2023-05-19T10:12:43;102501.59;;;15.74;39.79
63306;BME280;50735;52.060;1.248;2023-05-19T10:15:17;102503.43;;;16.02;39.80
63306;BME280;50735;52.060;1.248;2023-05-19T10:17:49;102504.53;;;15.95;40.08
63306;BME280;50735;52.060;1.248;2023-05-19T10:20:22;102505.18;;;16.26;39.06
63306;BME280;50735;52.060;1.248;2023-05-19T10:22:54;102500.30;;;16.42;39.00
63306;BME280;50735;52.060;1.248;2023-05-19T10:25:25;102497.90;;;15.64;37.16
63306;BME280;50735;52.060;1.248;2023-05-19T10:28:00;102492.67;;;16.25;37.21
63306;BME280;50735;52.060;1.248;2023-05-19T10:30:34;102487.83;;;16.99;37.33
63306;BME280;50735;52.060;1.248;2023-05-19T10:33:09;102484.82;;;17.29;36.09
63306;BME280;50735;52.060;1.248;2023-05-19T10:35:57;102486.78;;;17.52;36.43
63306;BME280;50735;52.060;1.248;2023-05-19T10:38:36;102485.93;;;17.23;35.55
63306;BME280;50735;52.060;1.248;2023-05-19T10:41:12;102480.80;;;16.83;35.25
63306;BME280;50735;52.060;1.248;2023-05-19T10:43:53;102485.68;;;16.06;37.48
63306;BME280;50735;52.060;1.248;2023-05-19T10:46:28;102483.10;;;15.81;37.96
63306;BME280;50735;52.060;1.248;2023-05-19T10:48:59;102486.47;;;15.59;37.73
63306;BME280;50735;52.060;1.248;2023-05-19T10:51:32;102482.54;;;15.95;37.93
63306;BME280;50735;52.060;1.248;2023-05-19T10:54:07;102482.75;;;15.13;38.38
63306;BME280;50735;52.060;1.248;2023-05-19T10:56:41;102481.85;;;15.73;38.38
63306;BME280;50735;52.060;1.248;2023-05-19T10:59:34;102475.75;;;16.11;37.95
63306;BME280;50735;52.060;1.248;2023-05-19T11:02:07;102475.47;;;16.11;35.06
63306;BME280;50735;52.060;1.248;2023-05-19T11:04:45;102476.15;;;15.45;35.01
63306;BME280;50735;52.060;1.248;2023-05-19T11:07:19;102470.90;;;15.98;35.80
63306;BME280;50735;52.060;1.248;2023-05-19T11:09:52;102466.55;;;16.88;35.27
63306;BME280;50735;52.060;1.248;2023-05-19T11:12:24;102463.64;;;17.05;34.82
63306;BME280;50735;52.060;1.248;2023-05-19T11:14:56;102465.07;;;17.58;32.45
63306;BME280;50735;52.060;1.248;2023-05-19T11:17:29;102467.30;;;16.50;35.51
63306;BME280;50735;52.060;1.248;2023-05-19T11:20:01;102466.78;;;16.68;37.02
63306;BME280;50735;52.060;1.248;2023-05-19T11:22:33;102465.07;;;17.01;36.93
63306;BME280;50735;52.060;1.248;2023-05-19T11:25:05;102466.03;;;17.32;36.60
63306;BME280;50735;52.060;1.248;2023-05-19T11:27:38;102460.86;;;17.12;35.54
63306;BME280;50735;52.060;1.248;2023-05-19T11:30:10;102462.57;;;16.53;36.06
63306;BME280;50735;52.060;1.248;2023-05-19T11:32:43;102460.91;;;16.39;37.15
63306;BME280;50735;52.060;1.248;2023-05-19T11:35:18;102461.85;;;16.99;36.46
63306;BME280;50735;52.060;1.248;2023-05-19T11:37:53;102464.36;;;17.59;35.77
63306;BME280;50735;52.060;1.248;2023-05-19T11:40:25;102463.08;;;17.51;34.82
63306;BME280;50735;52.060;1.248;2023-05-19T11:42:57;102460.17;;;17.20;34.91
63306;BME280;50735;52.060;1.248;2023-05-19T11:45:30;102453.16;;;17.26;35.51
63306;BME280;50735;52.060;1.248;2023-05-19T11:48:03;102449.68;;;17.47;35.75
63306;BME280;50735;52.060;1.248;2023-05-19T11:50:35;102450.28;;;18.16;35.31
63306;BME280;50735;52.060;1.248;2023-05-19T11:53:07;102449.59;;;17.17;35.63
63306;BME280;50735;52.060;1.248;2023-05-19T11:55:43;102447.57;;;17.83;33.59
63306;BME280;50735;52.060;1.248;2023-05-19T11:58:16;102440.75;;;18.47;33.26
63306;BME280;50735;52.060;1.248;2023-05-19T12:00:48;102437.33;;;18.70;33.63
63306;BME280;50735;52.060;1.248;2023-05-19T12:03:22;102439.13;;;18.46;33.11
63306;BME280;50735;52.060;1.248;2023-05-19T12:05:55;102427.59;;;18.99;32.80
63306;BME280;50735;52.060;1.248;2023-05-19T12:08:28;102431.76;;;18.07;33.51
63306;BME280;50735;52.060;1.248;2023-05-19T12:10:59;102433.96;;;17.26;35.46
63306;BME280;50735;52.060;1.248;2023-05-19T12:13:32;102431.53;;;18.11;34.31
63306;BME280;50735;52.060;1.248;2023-05-19T12:16:04;102423.95;;;18.84;34.45
63306;BME280;50735;52.060;1.248;2023-05-19T12:18:37;102425.18;;;18.74;35.95
63306;BME280;50735;52.060;1.248;2023-05-19T12:21:08;102433.55;;;17.45;35.93
63306;BME280;50735;52.060;1.248;2023-05-19T12:23:40;102431.79;;;17.40;35.89
63306;BME280;50735;52.060;1.248;2023-05-19T12:26:13;102431.86;;;17.31;34.83
63306;BME280;50735;52.060;1.248;2023-05-19T12:28:45;102430.84;;;16.92;36.75
63306;BME280;50735;52.060;1.248;2023-05-19T12:31:17;102433.17;;;16.62;37.88
63306;BME280;50735;52.060;1.248;2023-05-19T12:33:49;102431.62;;;16.81;36.54
63306;BME280;50735;52.060;1.248;2023-05-19T12:36:23;102428.57;;;17.53;35.82
63306;BME280;50735;52.060;1.248;2023-05-19T12:38:55;102430.95;;;17.11;36.49
63306;BME280;50735;52.060;1.248;2023-05-19T12:41:28;102430.26;;;17.64;37.09
63306;BME280;50735;52.060;1.248;2023-05-19T12:44:00;102431.04;;;17.21;36.42
63306;BME280;50735;52.060;1.248;2023-05-19T12:46:32;102431.72;;;18.45;35.66
63306;BME280;50735;52.060;1.248;2023-05-19T12:49:04;102428.09;;;17.88;35.89
63306;BME280;50735;52.060;1.248;2023-05-19T12:51:36;102430.46;;;17.54;35.17
63306;BME280;50735;52.060;1.248;2023-05-19T12:54:08;102431.52;;;17.44;35.99
63306;BME280;50735;52.060;1.248;2023-05-19T12:56:48;102432.42;;;17.22;35.61
63306;BME280;50735;52.060;1.248;2023-05-19T12:59:21;102428.03;;;16.70;36.05
63306;BME280;50735;52.060;1.248;2023-05-19T13:01:54;102427.41;;;17.55;35.66
63306;BME280;50735;52.060;1.248;2023-05-19T13:04:27;102424.28;;;17.47;34.68
63306;BME280;50735;52.060;1.248;2023-05-19T13:06:58;102423.15;;;18.22;34.32
63306;BME280;50735;52.060;1.248;2023-05-19T13:09:30;102425.00;;;17.83;35.39
63306;BME280;50735;52.060;1.248;2023-05-19T13:12:03;102426.99;;;17.26;36.62
63306;BME280;50735;52.060;1.248;2023-05-19T13:14:34;102424.52;;;18.00;35.49
63306;BME280;50735;52.060;1.248;2023-05-19T13:17:07;102419.60;;;18.10;34.76
63306;BME280;50735;52.060;1.248;2023-05-19T13:19:38;102416.21;;;18.53;35.11
63306;BME280;50735;52.060;1.248;2023-05-19T13:22:10;102420.63;;;17.79;36.16
63306;BME280;50735;52.060;1.248;2023-05-19T13:24:42;102419.39;;;18.04;34.33